Time;durP1;ratioP1;P1;durP2;ratioP2;P2;SDS_P1;SDS_P2;PMS_P1;PMS_P2;Temp;Humidity;BMP_temperature;BMP_pressure;BME280_temperature;BME280_humidity;BME280_pressure;Samples;Min_cycle;Max_cycle;Signal;HPM_P1;HPM_P2
2023/05/21 00:01:33;;;;;;;22.20;20.10;;;15.70;99.90;;;;;;5095055;28;20180;-46
2023/05/21 00:03:59;;;;;;;21.00;19.00;;;15.60;1.00;;;;;;5095722;28;20180;-45
2023/05/21 00:06:25;;;;;;;19.70;17.90;;;15.60;1.00;;;;;;5097119;28;20175;-48
2023/05/21 00:08:50;;;;;;;21.27;19.27;;;15.60;1.00;;;;;;5095592;28;20199;-46
2023/05/21 00:11:16;;;;;;;21.07;19.00;;;15.60;1.00;;;;;;5096356;28;20184;-46
2023/05/21 00:13:42;;;;;;;20.37;18.67;;;15.60;1.00;;;;;;5096644;28;20222;-46
2023/05/21 00:16:09;;;;;;;21.23;19.13;;;15.50;1.00;;;;;;5096819;28;20538;-47
2023/05/21 00:18:38;;;;;;;21.87;19.67;;;15.50;1.00;;;;;;5095878;28;20180;-45
2023/05/21 00:21:03;;;;;;;23.03;20.30;;;15.50;1.00;;;;;;5095168;28;20413;-45
2023/05/21 00:23:31;;;;;;;20.80;18.90;;;15.50;1.00;;;;;;5095478;28;20529;-45
2023/05/21 00:25:57;;;;;;;19.90;18.10;;;15.40;1.00;;;;;;5095273;28;20181;-46
2023/05/21 00:28:23;;;;;;;20.93;18.77;;;15.40;1.00;;;;;;5095145;28;20482;-46
2023/05/21 00:30:48;;;;;;;20.70;18.80;;;15.40;1.00;;;;;;5094891;28;20981;-47
2023/05/21 00:33:14;;;;;;;21.27;19.00;;;15.40;1.00;;;;;;5095753;28;20568;-45
2023/05/21 00:35:40;;;;;;;21.20;18.97;;;15.30;1.00;;;;;;5096713;28;20230;-46
2023/05/21 00:38:07;;;;;;;22.17;20.07;;;15.30;1.00;;;;;;5095628;28;20502;-47
2023/05/21 00:40:34;;;;;;;21.10;19.20;;;15.30;1.00;;;;;;5094683;28;20324;-47
2023/05/21 00:43:00;;;;;;;21.50;19.57;;;15.30;1.00;;;;;;5093884;28;20410;-45
2023/05/21 00:45:25;;;;;;;21.37;19.30;;;15.30;1.00;;;;;;5093938;28;20518;-46
2023/05/21 00:47:54;;;;;;;21.07;19.00;;;15.20;1.00;;;;;;5095039;28;20177;-44
2023/05/21 00:50:21;;;;;;;21.40;19.50;;;15.20;1.00;;;;;;5094085;28;20271;-45
2023/05/21 00:52:47;;;;;;;21.97;19.97;;;15.20;1.00;;;;;;5095581;28;20438;-45
2023/05/21 00:55:14;;;;;;;23.83;21.57;;;15.10;15.60;;;;;;5093771;28;20476;-46
2023/05/21 00:57:41;;;;;;;24.20;21.80;;;15.10;32.40;;;;;;5095964;28;20403;-50
2023/05/21 01:00:07;;;;;;;23.57;21.27;;;15.10;39.60;;;;;;5094364;28;20426;-45
2023/05/21 01:02:35;;;;;;;22.40;20.40;;;15.10;58.10;;;;;;5098233;28;20817;-45
2023/05/21 01:05:04;;;;;;;21.90;19.70;;;15.10;56.90;;;;;;5098068;28;20434;-47
2023/05/21 01:07:33;;;;;;;23.03;20.93;;;15.00;67.70;;;;;;5098995;28;20493;-45
2023/05/21 01:10:06;;;;;;;21.57;19.63;;;15.00;60.90;;;;;;5098834;28;20895;-46
2023/05/21 01:12:33;;;;;;;22.63;20.53;;;15.00;77.10;;;;;;5097528;28;20869;-45
2023/05/21 01:15:00;;;;;;;22.40;20.20;;;15.00;81.80;;;;;;5096301;28;20513;-47
2023/05/21 01:17:27;;;;;;;25.30;22.73;;;14.90;88.80;;;;;;5097121;28;20421;-46
2023/05/21 01:19:53;;;;;;;24.07;21.77;;;14.90;93.60;;;;;;5096829;28;20427;-47
2023/05/21 01:22:20;;;;;;;22.70;20.60;;;14.80;98.90;;;;;;5097481;28;20410;-45
2023/05/21 01:24:48;;;;;;;23.70;21.47;;;14.80;99.50;;;;;;5098035;28;20180;-45
2023/05/21 01:27:14;;;;;;;23.00;20.90;;;14.80;99.90;;;;;;5097844;28;20796;-45
2023/05/21 01:29:40;;;;;;;22.80;20.70;;;14.80;98.70;;;;;;5099442;28;20449;-48
2023/05/21 01:32:28;;;;;;;22.00;19.70;;;14.80;94.50;;;;;;5100038;28;20188;-45
2023/05/21 01:35:09;;;;;;;23.20;20.90;;;14.70;99.90;;;;;;5099625;28;20207;-45
2023/05/21 01:37:45;;;;;;;22.63;20.40;;;14.70;87.50;;;;;;5099232;28;20433;-46
2023/05/21 01:40:20;;;;;;;23.50;21.33;;;14.70;97.50;;;;;;5098223;28;20429;-45
2023/05/21 01:42:46;;;;;;;23.70;21.50;;;14.70;99.90;;;;;;5097935;28;20740;-46
2023/05/21 01:45:14;;;;;;;24.90;22.30;;;14.70;99.90;;;;;;5098444;28;20431;-45
2023/05/21 01:47:42;;;;;;;24.27;21.93;;;14.70;99.90;;;;;;5096768;28;20450;-46
2023/05/21 01:50:08;;;;;;;22.73;20.63;;;14.70;99.90;;;;;;5096057;28;20422;-48
2023/05/21 01:52:35;;;;;;;25.60;23.00;;;14.60;99.90;;;;;;5098584;28;20452;-45
2023/05/21 01:55:02;;;;;;;23.13;20.90;;;14.60;99.90;;;;;;5098291;28;20577;-45
2023/05/21 01:57:28;;;;;;;24.20;21.87;;;14.50;99.90;;;;;;5099226;28;20497;-46
2023/05/21 01:59:55;;;;;;;23.87;21.67;;;14.50;99.90;;;;;;5098075;28;20517;-46
2023/05/21 02:02:20;;;;;;;23.60;21.30;;;14.50;99.90;;;;;;5097488;28;20550;-45
2023/05/21 02:04:46;;;;;;;24.90;22.57;;;14.50;99.90;;;;;;5098675;28;20513;-45
2023/05/21 02:07:13;;;;;;;23.60;21.13;;;14.50;99.90;;;;;;5098243;28;20184;-47
2023/05/21 02:09:39;;;;;;;23.93;21.47;;;14.40;99.90;;;;;;5098493;28;20427;-45
2023/05/21 02:12:06;;;;;;;22.70;20.53;;;14.40;99.90;;;;;;5098282;28;20425;-47
2023/05/21 02:14:32;;;;;;;24.40;22.10;;;14.40;99.90;;;;;;5098107;28;20188;-45
2023/05/21 02:20:21;;;;;;;24.97;22.57;;;14.40;99.90;;;;;;5098305;28;20464;-46
2023/05/21 02:22:47;;;;;;;23.13;20.93;;;14.40;99.90;;;;;;5098369;28;20449;-45
2023/05/21 02:25:15;;;;;;;23.53;21.23;;;14.30;99.90;;;;;;5097982;28;20820;-45
2023/05/21 02:27:41;;;;;;;23.90;21.50;;;14.30;99.90;;;;;;5097273;28;20462;-44
2023/05/21 02:30:11;;;;;;;22.47;19.73;;;14.30;99.90;;;;;;5097521;28;20427;-46
2023/05/21 02:32:41;;;;;;;23.13;20.93;;;14.30;99.90;;;;;;5098031;28;20452;-46
2023/05/21 02:35:07;;;;;;;23.10;20.80;;;14.30;99.90;;;;;;5098302;28;20727;-45
2023/05/21 02:37:33;;;;;;;22.97;20.77;;;14.20;99.90;;;;;;5097255;28;20435;-46
2023/05/21 02:39:59;;;;;;;22.97;20.50;;;14.20;99.90;;;;;;5097950;28;20493;-44
2023/05/21 02:42:25;;;;;;;22.97;20.70;;;14.20;99.90;;;;;;5098088;28;20625;-45
2023/05/21 02:44:51;;;;;;;25.27;22.77;;;14.20;99.90;;;;;;5096576;28;20644;-45
2023/05/21 02:47:18;;;;;;;25.17;22.67;;;14.20;99.90;;;;;;5097425;28;20433;-46
2023/05/21 02:49:44;;;;;;;22.70;20.70;;;14.20;99.90;;;;;;5097175;28;20446;-45
2023/05/21 02:52:09;;;;;;;24.60;22.23;;;14.10;99.90;;;;;;5097534;28;20430;-45
2023/05/21 02:54:35;;;;;;;24.60;22.30;;;14.10;99.90;;;;;;5096664;28;20188;-46
2023/05/21 02:57:00;;;;;;;24.70;22.33;;;14.10;99.90;;;;;;5096837;28;20477;-44
2023/05/21 02:59:26;;;;;;;25.70;23.30;;;14.10;99.90;;;;;;5097627;28;20187;-47
2023/05/21 03:01:51;;;;;;;24.33;21.93;;;14.10;99.90;;;;;;5096364;28;20279;-46
2023/05/21 03:04:17;;;;;;;25.60;23.13;;;14.00;99.90;;;;;;5097844;28;20180;-46
2023/05/21 03:06:46;;;;;;;23.30;21.17;;;14.00;99.90;;;;;;5097141;28;20184;-44
2023/05/21 03:09:12;;;;;;;24.33;22.13;;;14.00;99.90;;;;;;5097474;28;20180;-48
2023/05/21 03:11:37;;;;;;;25.37;23.07;;;14.00;99.90;;;;;;5097393;28;20495;-45
2023/05/21 03:14:03;;;;;;;25.10;22.40;;;14.00;99.90;;;;;;5097729;28;20188;-45
2023/05/21 03:16:33;;;;;;;24.27;21.97;;;13.90;99.90;;;;;;5096016;28;20314;-45
2023/05/21 03:18:59;;;;;;;25.30;22.90;;;13.90;99.90;;;;;;5095199;28;20187;-46
2023/05/21 03:21:25;;;;;;;24.53;22.23;;;13.90;99.90;;;;;;5095695;28;20426;-46
2023/05/21 03:23:51;;;;;;;26.43;23.80;;;13.90;99.90;;;;;;5096380;28;20417;-45
2023/05/21 03:26:17;;;;;;;23.30;21.10;;;13.80;99.90;;;;;;5097064;28;20187;-45
2023/05/21 03:28:43;;;;;;;23.60;21.27;;;13.80;99.90;;;;;;5095827;28;20473;-47
2023/05/21 03:31:08;;;;;;;25.27;22.97;;;13.80;99.90;;;;;;5094917;28;20607;-44
2023/05/21 03:33:34;;;;;;;25.67;23.17;;;13.80;99.90;;;;;;5094780;28;20249;-46
2023/05/21 03:36:00;;;;;;;23.40;21.20;;;13.70;99.90;;;;;;5094042;28;20375;-47
2023/05/21 03:38:25;;;;;;;22.43;20.23;;;13.70;99.90;;;;;;5094379;28;20407;-44
2023/05/21 03:40:51;;;;;;;22.83;20.70;;;13.70;99.90;;;;;;5094098;28;20546;-47
2023/05/21 03:43:16;;;;;;;24.30;22.00;;;13.70;99.90;;;;;;5094843;28;20165;-45
2023/05/21 03:45:42;;;;;;;24.70;22.20;;;13.60;99.90;;;;;;5096151;28;20184;-45
2023/05/21 03:48:07;;;;;;;23.37;21.07;;;13.60;99.90;;;;;;5095762;28;20626;-46
2023/05/21 03:50:33;;;;;;;21.93;19.83;;;13.60;99.90;;;;;;5095960;28;20261;-46
2023/05/21 03:52:59;;;;;;;24.30;21.93;;;13.60;99.90;;;;;;5096913;28;20184;-46
2023/05/21 03:55:24;;;;;;;24.00;21.70;;;13.60;99.90;;;;;;5096906;28;20215;-45
2023/05/21 03:57:50;;;;;;;25.07;22.57;;;13.50;99.90;;;;;;5097188;28;20168;-47
2023/05/21 04:00:15;;;;;;;24.80;22.30;;;13.50;99.90;;;;;;5097015;28;20266;-47
2023/05/21 04:02:41;;;;;;;24.63;22.23;;;13.50;99.90;;;;;;5095159;28;20593;-45
2023/05/21 04:05:07;;;;;;;24.13;21.87;;;13.50;99.90;;;;;;5094379;28;20164;-45
2023/05/21 04:07:33;;;;;;;25.23;22.73;;;13.50;99.90;;;;;;5095400;28;20587;-45
2023/05/21 04:09:59;;;;;;;26.60;24.00;;;13.50;99.90;;;;;;5095512;28;20692;-46
2023/05/21 04:12:25;;;;;;;24.07;21.87;;;13.50;99.90;;;;;;5096211;28;20410;-44
2023/05/21 04:14:50;;;;;;;25.00;22.60;;;13.50;99.90;;;;;;5096635;28;20572;-44
2023/05/21 04:17:17;;;;;;;25.50;23.10;;;13.50;99.90;;;;;;5095760;28;20270;-46
2023/05/21 04:19:43;;;;;;;26.40;23.80;;;13.50;99.90;;;;;;5095550;28;20161;-44
2023/05/21 04:22:10;;;;;;;25.53;23.03;;;13.50;99.90;;;;;;5096570;28;20596;-44
2023/05/21 04:24:36;;;;;;;26.23;23.67;;;13.50;99.90;;;;;;5096810;28;20176;-47
2023/05/21 04:27:02;;;;;;;27.60;24.90;;;13.60;99.90;;;;;;5096633;28;20502;-46
2023/05/21 04:29:28;;;;;;;27.37;24.70;;;13.60;99.90;;;;;;5094557;28;20990;-44
2023/05/21 04:31:54;;;;;;;27.37;24.30;;;13.60;99.90;;;;;;5093951;28;20437;-46
2023/05/21 04:34:20;;;;;;;27.33;24.63;;;13.60;99.90;;;;;;5093887;28;20686;-45
2023/05/21 04:36:46;;;;;;;26.53;23.93;;;13.60;99.90;;;;;;5097637;28;20465;-47
2023/05/21 04:39:13;;;;;;;27.97;25.27;;;13.60;99.90;;;;;;5097287;28;20259;-49
2023/05/21 04:41:39;;;;;;;25.70;23.20;;;13.70;99.90;;;;;;5097305;28;20422;-44
2023/05/21 04:44:06;;;;;;;27.47;24.77;;;13.70;99.90;;;;;;5098407;28;20781;-45
2023/05/21 04:46:33;;;;;;;27.27;24.57;;;13.70;99.90;;;;;;5099117;28;20180;-46
2023/05/21 04:49:01;;;;;;;27.77;24.97;;;13.80;99.90;;;;;;5097916;28;20418;-47
2023/05/21 04:51:27;;;;;;;28.47;25.57;;;13.80;99.90;;;;;;5099118;28;20772;-45
2023/05/21 04:53:53;;;;;;;25.47;23.00;;;13.80;99.90;;;;;;5099323;28;20414;-47
2023/05/21 04:56:20;;;;;;;27.83;24.13;;;13.90;99.90;;;;;;5098731;28;20496;-45
2023/05/21 04:58:46;;;;;;;26.57;23.97;;;13.90;99.90;;;;;;5099128;28;20171;-45
2023/05/21 05:01:13;;;;;;;26.03;23.33;;;13.90;99.90;;;;;;5097530;28;20418;-45
2023/05/21 05:03:39;;;;;;;26.83;24.10;;;13.90;99.90;;;;;;5097758;28;20852;-46
2023/05/21 05:06:06;;;;;;;24.50;22.03;;;14.00;99.90;;;;;;5098217;28;20514;-45
2023/05/21 05:08:32;;;;;;;26.20;23.60;;;14.00;99.90;;;;;;5096725;28;20214;-46
2023/05/21 05:10:58;;;;;;;27.77;25.07;;;14.10;99.90;;;;;;5095196;28;20466;-46
2023/05/21 05:13:23;;;;;;;26.20;23.60;;;14.10;99.90;;;;;;5095872;28;20836;-45
2023/05/21 05:15:49;;;;;;;27.10;24.43;;;14.20;99.90;;;;;;5096654;28;20275;-47
2023/05/21 05:18:15;;;;;;;26.10;23.50;;;14.20;99.90;;;;;;5097768;28;20184;-45
2023/05/21 05:20:41;;;;;;;26.53;23.93;;;14.30;99.90;;;;;;5097520;28;20180;-44
2023/05/21 05:23:06;;;;;;;25.77;23.27;;;14.40;99.90;;;;;;5097517;28;20487;-46
2023/05/21 05:25:32;;;;;;;26.57;24.17;;;14.40;99.90;;;;;;5097564;28;20191;-47
2023/05/21 05:27:57;;;;;;;26.60;24.30;;;14.50;99.90;;;;;;5098100;28;20235;-46
2023/05/21 05:30:23;;;;;;;26.03;23.60;;;14.60;99.90;;;;;;5098829;28;20228;-45
2023/05/21 05:32:48;;;;;;;26.60;24.13;;;14.60;99.90;;;;;;5099529;28;20251;-46
2023/05/21 05:35:14;;;;;;;26.83;24.33;;;14.70;99.90;;;;;;5098790;28;20249;-45
2023/05/21 05:37:40;;;;;;;27.00;24.50;;;14.70;99.90;;;;;;5098386;28;20172;-45
2023/05/21 05:40:06;;;;;;;27.30;24.60;;;14.70;99.90;;;;;;5097008;28;20172;-47
2023/05/21 05:42:32;;;;;;;27.40;24.80;;;14.90;99.90;;;;;;5098693;28;20168;-47
2023/05/21 05:44:58;;;;;;;25.63;23.23;;;14.90;99.90;;;;;;5097177;28;20436;-46
2023/05/21 05:47:23;;;;;;;28.83;26.03;;;15.00;99.00;;;;;;5098878;28;20230;-45
2023/05/21 05:49:49;;;;;;;28.17;25.10;;;15.10;52.80;;;;;;5099510;28;20411;-45
2023/05/21 05:52:15;;;;;;;29.23;26.27;;;15.10;23.10;;;;;;5098410;28;20275;-44
2023/05/21 05:54:40;;;;;;;27.53;25.03;;;15.20;59.10;;;;;;5097068;28;20194;-46
2023/05/21 05:57:06;;;;;;;28.13;25.53;;;15.20;52.90;;;;;;5095759;28;20168;-48
2023/05/21 05:59:32;;;;;;;28.03;25.40;;;15.40;17.70;;;;;;5097329;28;20172;-48
2023/05/21 06:02:01;;;;;;;27.83;25.03;;;15.40;16.70;;;;;;5097422;28;20427;-46
2023/05/21 06:04:28;;;;;;;29.33;26.37;;;15.50;16.10;;;;;;5096577;28;20420;-46
2023/05/21 06:06:56;;;;;;;27.30;24.80;;;15.60;1.00;;;;;;5096395;28;20430;-46
2023/05/21 06:09:26;;;;;;;25.40;23.10;;;15.70;1.00;;;;;;5095763;28;20506;-48
2023/05/21 06:11:51;;;;;;;27.50;24.67;;;15.90;1.00;;;;;;5097264;28;20719;-45
2023/05/21 06:14:17;;;;;;;26.00;23.53;;;16.00;1.00;;;;;;5097945;28;20519;-46
2023/05/21 06:16:43;;;;;;;25.33;22.83;;;16.10;1.00;;;;;;5097982;28;20212;-46
2023/05/21 06:19:08;;;;;;;25.30;23.00;;;16.20;1.00;;;;;;5097204;28;20588;-47
2023/05/21 06:21:34;;;;;;;26.67;24.17;;;16.30;1.00;;;;;;5097368;28;20184;-45
2023/05/21 06:23:59;;;;;;;24.27;22.00;;;16.40;99.90;;;;;;5095161;28;20411;-46
2023/05/21 06:26:25;;;;;;;26.60;24.00;;;16.50;99.90;;;;;;5097567;28;20211;-45
2023/05/21 06:28:51;;;;;;;25.80;23.30;;;16.60;99.90;;;;;;5096605;28;20269;-45
2023/05/21 06:31:16;;;;;;;26.17;23.70;;;16.70;1.00;;;;;;5098115;28;20558;-46
2023/05/21 06:33:42;;;;;;;25.57;23.17;;;16.70;1.00;;;;;;5097537;28;20187;-46
2023/05/21 06:36:08;;;;;;;26.20;23.60;;;16.70;76.40;;;;;;5093559;28;20215;-45
2023/05/21 06:38:33;;;;;;;27.77;24.93;;;16.70;99.90;;;;;;5093175;28;20419;-45
2023/05/21 06:40:59;;;;;;;24.37;21.90;;;16.80;99.90;;;;;;5096119;28;20225;-46
2023/05/21 06:43:25;;;;;;;26.07;23.67;;;16.90;37.70;;;;;;5095833;28;20282;-46
2023/05/21 06:45:50;;;;;;;26.33;23.93;;;17.10;1.00;;;;;;5096513;28;20192;-45
2023/05/21 06:48:16;;;;;;;24.73;22.37;;;17.30;99.90;;;;;;5095366;28;20176;-46
2023/05/21 06:50:42;;;;;;;25.60;23.00;;;17.40;99.90;;;;;;5097017;28;20180;-46
2023/05/21 06:53:08;;;;;;;25.27;22.97;;;17.50;1.00;;;;;;5097110;28;20176;-46
2023/05/21 06:55:33;;;;;;;23.87;21.63;;;17.60;1.00;;;;;;5097093;28;20534;-46
2023/05/21 06:57:59;;;;;;;20.33;18.47;;;17.70;99.90;;;;;;5094251;28;20411;-44
2023/05/21 07:00:25;;;;;;;22.37;20.27;;;17.90;1.00;;;;;;5095396;28;20176;-45
2023/05/21 07:02:51;;;;;;;23.13;20.93;;;18.00;78.70;;;;;;5095418;28;20332;-45
2023/05/21 07:05:16;;;;;;;22.37;20.13;;;18.10;1.00;;;;;;5095026;28;20203;-45
2023/05/21 07:07:43;;;;;;;21.43;19.53;;;18.30;10.40;;;;;;5093737;28;20473;-46
2023/05/21 07:10:09;;;;;;;19.93;18.23;;;18.40;1.00;;;;;;5093880;28;20615;-48
2023/05/21 07:12:34;;;;;;;20.17;18.40;;;18.60;99.90;;;;;;5094743;28;20422;-48
2023/05/21 07:15:00;;;;;;;20.43;18.53;;;18.60;1.00;;;;;;5095973;28;20470;-45
2023/05/21 07:17:26;;;;;;;21.10;19.20;;;18.80;1.00;;;;;;5096461;28;20200;-46
2023/05/21 07:19:51;;;;;;;20.43;18.57;;;18.90;99.90;;;;;;5097039;28;20183;-46
2023/05/21 07:22:17;;;;;;;17.93;16.43;;;19.10;1.00;;;;;;5096682;28;20458;-47
2023/05/21 07:24:43;;;;;;;17.63;16.10;;;19.40;1.00;;;;;;5097657;28;20262;-48
2023/05/21 07:27:08;;;;;;;18.70;17.00;;;19.60;1.00;;;;;;5096400;28;20187;-49
2023/05/21 07:29:34;;;;;;;16.37;14.80;;;19.80;1.00;;;;;;5094238;28;20373;-46
2023/05/21 07:31:59;;;;;;;16.10;14.80;;;20.00;99.90;;;;;;5096518;28;20188;-48
2023/05/21 07:34:25;;;;;;;15.03;13.73;;;20.40;99.90;;;;;;5096108;28;20168;-46
2023/05/21 07:36:51;;;;;;;16.90;15.40;;;20.80;71.70;;;;;;5096167;28;20306;-46
2023/05/21 07:39:17;;;;;;;17.33;15.63;;;21.10;1.00;;;;;;5095547;28;20585;-47
2023/05/21 07:41:43;;;;;;;15.20;13.90;;;21.40;99.90;;;;;;5095044;28;20176;-48
2023/05/21 07:44:08;;;;;;;15.23;13.83;;;21.70;99.90;;;;;;5096416;28;20411;-46
2023/05/21 07:46:34;;;;;;;15.10;13.80;;;21.90;99.90;;;;;;5095805;28;20273;-49
2023/05/21 07:48:59;;;;;;;15.93;14.43;;;22.10;99.90;;;;;;5095921;28;20259;-49
2023/05/21 07:51:25;;;;;;;15.30;14.00;;;22.40;99.90;;;;;;5094855;28;20531;-46
2023/05/21 07:53:51;;;;;;;16.47;15.07;;;22.60;99.90;;;;;;5092711;28;20176;-46
2023/05/21 07:56:17;;;;;;;16.10;14.40;;;22.80;55.20;;;;;;5093344;28;20513;-47
2023/05/21 07:58:44;;;;;;;17.10;15.47;;;22.80;31.00;;;;;;5094025;28;20204;-53
2023/05/21 08:01:10;;;;;;;16.00;14.70;;;22.70;9.30;;;;;;5095040;28;20177;-46
2023/05/21 08:03:36;;;;;;;16.13;14.80;;;22.60;4.40;;;;;;5094609;28;20411;-51
2023/05/21 08:06:02;;;;;;;16.47;15.10;;;22.10;7.90;;;;;;5095845;28;20816;-47
2023/05/21 08:08:28;;;;;;;14.30;13.00;;;22.30;6.30;;;;;;5094040;28;20432;-47
2023/05/21 08:10:53;;;;;;;14.23;13.03;;;22.60;1.00;;;;;;5098986;28;20434;-47
2023/05/21 08:13:19;;;;;;;15.47;14.07;;;22.80;1.00;;;;;;5099971;28;20160;-47
2023/05/21 08:15:45;;;;;;;15.30;14.00;;;23.20;1.00;;;;;;5081668;28;20273;-46
2023/05/21 08:18:11;;;;;;;14.67;13.43;;;23.40;1.00;;;;;;5100337;28;20199;-46
2023/05/21 08:20:36;;;;;;;13.77;12.50;;;23.60;1.00;;;;;;5099360;28;20180;-58
2023/05/21 08:23:02;;;;;;;14.57;13.13;;;23.60;1.00;;;;;;5100127;28;20173;-53
2023/05/21 08:25:28;;;;;;;17.30;12.33;;;23.70;1.00;;;;;;5099215;28;20191;-55
2023/05/21 08:27:54;;;;;;;14.20;12.90;;;24.00;1.00;;;;;;5099729;28;20895;-58
2023/05/21 08:30:20;;;;;;;14.63;13.37;;;24.40;1.00;;;;;;5100282;28;20184;-53
2023/05/21 08:32:47;;;;;;;14.10;12.73;;;24.70;1.00;;;;;;5100194;28;20425;-53
2023/05/21 08:35:12;;;;;;;15.37;14.10;;;24.90;1.00;;;;;;5078714;28;20302;-55
2023/05/21 08:37:38;;;;;;;17.63;13.30;;;25.10;1.00;;;;;;5098247;28;20483;-52
2023/05/21 08:40:05;;;;;;;15.50;14.00;;;25.10;1.00;;;;;;5097212;28;20169;-49
2023/05/21 08:42:39;;;;;;;15.60;14.20;;;25.30;1.00;;;;;;5097851;28;20673;-51
2023/05/21 08:45:05;;;;;;;14.53;13.23;;;25.50;1.00;;;;;;5096838;28;20469;-56
2023/05/21 08:47:34;;;;;;;13.40;12.30;;;25.60;1.00;;;;;;5097453;28;20452;-58
2023/05/21 08:49:59;;;;;;;16.73;14.33;;;25.80;1.00;;;;;;5098610;28;20400;-52
2023/05/21 08:52:25;;;;;;;14.57;13.47;;;25.90;1.00;;;;;;5096616;28;20603;-59
2023/05/21 08:54:52;;;;;;;15.40;13.97;;;25.70;1.00;;;;;;5096407;28;20636;-55
2023/05/21 08:57:18;;;;;;;13.13;12.13;;;25.60;1.00;;;;;;5095046;28;20460;-60
2023/05/21 08:59:45;;;;;;;16.33;14.93;;;25.90;1.00;;;;;;5097802;28;20485;-62
2023/05/21 09:02:12;;;;;;;14.57;13.37;;;26.30;1.00;;;;;;5097873;28;20516;-57
2023/05/21 09:04:39;;;;;;;14.33;12.93;;;26.60;1.00;;;;;;5096284;28;20406;-57
2023/05/21 09:07:05;;;;;;;13.33;12.30;;;26.80;1.00;;;;;;5096977;28;20422;-51
2023/05/21 09:09:33;;;;;;;15.37;14.00;;;27.10;1.00;;;;;;5097175;28;20417;-55
2023/05/21 09:11:59;;;;;;;15.33;14.13;;;27.40;1.00;;;;;;5095129;28;20853;-58
2023/05/21 09:14:26;;;;;;;14.00;12.90;;;27.40;1.00;;;;;;5095609;28;20414;-55
2023/05/21 09:16:51;;;;;;;15.13;13.90;;;27.30;1.00;;;;;;5097194;28;20466;-55
2023/05/21 09:19:20;;;;;;;13.73;12.53;;;27.40;1.00;;;;;;5098699;28;20385;-57
2023/05/21 09:21:46;;;;;;;14.90;13.60;;;27.20;1.00;;;;;;5094815;28;20177;-57
2023/05/21 09:24:13;;;;;;;16.57;15.17;;;27.30;1.00;;;;;;5096868;28;20750;-54
2023/05/21 09:26:42;;;;;;;17.63;16.10;;;27.10;1.00;;;;;;5097747;28;20177;-58
2023/05/21 09:29:07;;;;;;;17.43;15.97;;;27.00;1.00;;;;;;5096861;28;20482;-58
2023/05/21 09:31:33;;;;;;;16.10;14.67;;;26.80;1.00;;;;;;5098522;28;20844;-53
2023/05/21 09:33:59;;;;;;;13.37;12.33;;;26.80;1.00;;;;;;5099506;28;20273;-58
2023/05/21 09:36:28;;;;;;;15.23;13.93;;;27.10;1.00;;;;;;5099565;28;20235;-57
2023/05/21 09:38:53;;;;;;;14.30;13.07;;;27.70;1.00;;;;;;5099026;28;20438;-57
2023/05/21 09:41:20;;;;;;;14.87;12.70;;;28.20;1.00;;;;;;5099013;28;20401;-57
2023/05/21 09:43:46;;;;;;;14.70;13.60;;;28.70;1.00;;;;;;5097991;28;20175;-57
2023/05/21 09:46:11;;;;;;;15.27;14.00;;;29.30;1.00;;;;;;5095285;28;20430;-55
2023/05/21 09:48:41;;;;;;;13.87;12.67;;;29.50;1.00;;;;;;5094686;28;20183;-55
2023/05/21 09:51:15;;;;;;;15.60;14.40;;;29.70;1.00;;;;;;5096130;28;20191;-56
2023/05/21 09:53:48;;;;;;;14.60;13.20;;;29.60;1.00;;;;;;5096804;28;20407;-57
2023/05/21 09:56:13;;;;;;;16.27;14.90;;;29.20;1.00;;;;;;5095384;28;20565;-55
2023/05/21 09:58:39;;;;;;;14.33;13.13;;;28.90;1.00;;;;;;5095593;28;20515;-59
2023/05/21 10:01:06;;;;;;;16.40;14.90;;;28.80;1.00;;;;;;5095990;28;20173;-56
2023/05/21 10:03:32;;;;;;;16.97;15.00;;;28.70;1.00;;;;;;5096551;28;20410;-57
2023/05/21 10:05:59;;;;;;;15.40;14.10;;;28.40;1.00;;;;;;5095761;28;20418;-58
2023/05/21 10:08:26;;;;;;;16.60;15.30;;;27.80;1.00;;;;;;5095011;28;20591;-53
2023/05/21 10:10:51;;;;;;;15.40;14.10;;;27.60;1.00;;;;;;5095112;28;20448;-58
2023/05/21 10:13:18;;;;;;;16.27;14.90;;;27.50;1.00;;;;;;5096253;28;20425;-57
2023/05/21 10:15:47;;;;;;;15.03;13.83;;;27.40;1.00;;;;;;5096683;28;20589;-57
2023/05/21 10:18:13;;;;;;;15.40;13.87;;;27.50;1.00;;;;;;5096768;28;20414;-52
2023/05/21 10:20:39;;;;;;;16.87;15.37;;;28.00;1.00;;;;;;5097059;28;20415;-49
2023/05/21 10:23:04;;;;;;;15.10;13.90;;;28.40;1.00;;;;;;5096630;28;20172;-53
2023/05/21 10:25:33;;;;;;;16.13;14.83;;;28.70;1.00;;;;;;5097235;28;20177;-49
2023/05/21 10:27:59;;;;;;;16.03;14.53;;;29.10;1.00;;;;;;5095607;28;20291;-49
2023/05/21 10:30:25;;;;;;;15.33;14.03;;;29.70;1.00;;;;;;5097239;28;20824;-51
2023/05/21 10:32:50;;;;;;;18.90;17.40;;;30.10;1.00;;;;;;5095215;28;20593;-49
2023/05/21 10:35:16;;;;;;;16.70;15.50;;;30.50;1.00;;;;;;5093988;28;20235;-54
2023/05/21 10:37:45;;;;;;;15.13;14.00;;;30.30;1.00;;;;;;5093886;28;20472;-51
2023/05/21 10:40:12;;;;;;;15.37;14.27;;;30.30;1.00;;;;;;5095113;28;20675;-51
2023/05/21 10:42:57;;;;;;;16.60;15.40;;;30.50;1.00;;;;;;5094227;28;20508;-51
2023/05/21 10:45:45;;;;;;;16.13;14.83;;;30.70;1.00;;;;;;5093490;28;20517;-49
2023/05/21 10:48:32;;;;;;;15.83;14.57;;;31.00;1.00;;;;;;5091328;28;20385;-49
2023/05/21 10:51:09;;;;;;;15.23;13.93;;;31.30;1.00;;;;;;5092967;28;20436;-51
2023/05/21 10:53:37;;;;;;;15.07;13.87;;;31.50;1.00;;;;;;5094489;28;20399;-49
2023/05/21 10:56:13;;;;;;;17.33;16.03;;;31.90;1.00;;;;;;5094541;28;20596;-49
2023/05/21 10:58:58;;;;;;;27.43;25.43;;;32.00;1.00;;;;;;5093242;28;20414;-54
2023/05/21 11:01:28;;;;;;;20.60;19.00;;;32.10;1.00;;;;;;5093267;28;20442;-51
2023/05/21 11:03:54;;;;;;;22.60;21.00;;;31.60;1.00;;;;;;5093914;28;20882;-48
2023/05/21 11:06:23;;;;;;;18.03;16.50;;;31.50;1.00;;;;;;5096077;28;20385;-48
2023/05/21 11:08:52;;;;;;;15.70;14.60;;;31.50;1.00;;;;;;5096055;28;20393;-52
2023/05/21 11:11:44;;;;;;;14.10;13.00;;;31.60;1.00;;;;;;5095332;28;20437;-51
2023/05/21 11:14:39;;;;;;;17.57;15.97;;;32.00;1.00;;;;;;5093295;28;20488;-51
2023/05/21 11:17:38;;;;;;;16.20;14.90;;;32.00;1.00;;;;;;5096162;28;20717;-51
2023/05/21 11:20:13;;;;;;;19.60;18.10;;;32.00;1.00;;;;;;5094298;28;20656;-53
2023/05/21 11:22:38;;;;;;;15.37;14.07;;;32.00;1.00;;;;;;5094685;28;20422;-51
2023/05/21 11:25:05;;;;;;;15.27;14.10;;;31.70;1.00;;;;;;5092914;28;20423;-50
2023/05/21 11:27:37;;;;;;;14.57;13.47;;;31.90;1.00;;;;;;5091560;28;20450;-50
2023/05/21 11:30:17;;;;;;;14.57;13.57;;;32.00;1.00;;;;;;5091534;28;20430;-49
2023/05/21 11:33:08;;;;;;;14.87;13.77;;;31.90;1.00;;;;;;5092524;28;20428;-52
2023/05/21 11:35:55;;;;;;;15.30;14.20;;;31.60;1.00;;;;;;5092263;28;20464;-50
2023/05/21 11:38:20;;;;;;;15.77;14.27;;;31.60;1.00;;;;;;5093086;28;20484;-49
2023/05/21 11:40:53;;;;;;;13.30;12.30;;;31.60;1.00;;;;;;5095342;28;20552;-45
2023/05/21 11:43:20;;;;;;;13.33;12.33;;;31.50;1.00;;;;;;5094026;28;20609;-46
2023/05/21 11:45:46;;;;;;;14.50;13.30;;;31.80;1.00;;;;;;5093979;28;20545;-47
2023/05/21 11:48:15;;;;;;;14.03;13.03;;;32.30;1.00;;;;;;5095867;28;20823;-47
2023/05/21 11:50:43;;;;;;;12.93;11.83;;;32.20;1.00;;;;;;5096143;28;20470;-47
2023/05/21 11:53:11;;;;;;;12.67;11.57;;;32.20;1.00;;;;;;5094137;28;20442;-46
2023/05/21 11:55:42;;;;;;;12.90;11.80;;;32.50;1.00;;;;;;5094055;28;20531;-50
2023/05/21 11:58:10;;;;;;;11.53;10.70;;;32.60;1.00;;;;;;5094924;28;20421;-54
2023/05/21 12:00:39;;;;;;;12.53;11.63;;;32.70;1.00;;;;;;5092266;28;20990;-50
2023/05/21 12:03:11;;;;;;;12.10;11.13;;;32.80;1.00;;;;;;5090970;28;20888;-49
2023/05/21 12:05:46;;;;;;;11.80;10.87;;;33.40;1.00;;;;;;5092463;28;20510;-47
2023/05/21 12:08:12;;;;;;;13.00;12.00;;;33.90;1.00;;;;;;5093900;28;20439;-45
2023/05/21 12:10:41;;;;;;;12.97;12.00;;;34.00;1.00;;;;;;5094096;28;20450;-47
2023/05/21 12:13:06;;;;;;;11.83;10.93;;;34.10;1.00;;;;;;5095109;28;20435;-47
2023/05/21 12:15:32;;;;;;;12.67;11.53;;;34.00;1.00;;;;;;5092251;28;20472;-44
2023/05/21 12:17:57;;;;;;;11.90;11.03;;;33.90;1.00;;;;;;5093491;28;20183;-45
2023/05/21 12:20:25;;;;;;;14.23;13.13;;;33.50;1.00;;;;;;5093592;28;20172;-46
2023/05/21 12:22:51;;;;;;;13.37;12.30;;;33.50;1.00;;;;;;5095000;28;20566;-46
2023/05/21 12:25:19;;;;;;;12.40;11.50;;;33.50;1.00;;;;;;5095025;28;20435;-50
2023/05/21 12:27:45;;;;;;;12.63;11.43;;;33.20;1.00;;;;;;5093352;28;20224;-47
2023/05/21 12:30:11;;;;;;;13.00;12.00;;;33.30;1.00;;;;;;5094973;28;20442;-46
2023/05/21 12:32:42;;;;;;;12.57;11.57;;;33.30;1.00;;;;;;5094181;28;20412;-45
2023/05/21 12:35:08;;;;;;;13.17;12.10;;;33.10;1.00;;;;;;5094837;28;20751;-45